Главная страница
METAR-TAF:

METAR-TAF

Аэропорты :

Минеральные Воды, Россия

широта: 44-14N, долгота: 043-04E, высота над уровнем моря: 314 м

Текущие метеонаблюдения

Эта сводка был подготовлена 47 минут назад, в 17:00 UTC
Ветер 6 Узел от северо-западный
Температура 7°C
Влажность 61%
Давление 1011 hPa
Видимость 10 км и более

METAR: URMM 281700Z 32003MPS 9999 NSC 07/00 Q1011 R30/000070 NOSIG RMK QFE730/0974

Время: 20:47 (17:47 UTC)

Прогноз

Эта сводка был подготовлена 49 минут назад, в 16:58 UTC
Прогноз действительный с 28-го 18 UTC до 29-го 18 UTC
Ветер 10 Узел от западно-северо-западный с порывами до 23 Узел
Видимость 10 км и более
Рассеянная облачность на высоте 2000 фута
временами
С 28-го 18 UTC до 29-го 15 UTC
Ветер 17 Узел от западный с порывами до 33 Узел

TAF: URMM 281658Z 2818/2918 30005G12MPS 9999 BKN020 TX08/2912Z TN02/2902Z TEMPO 2818/2915 28009G17MPS

Метеонаблюдения и прогнозы для более 4000 аэропортов (сводки METAR и TAF).

Имеющиеся станции представлены на карте желтыми и красными точками.

Чтобы увидеть название станции, наведите на нее мышь.

Затем щелкните, чтобы увидеть метеонаблюдения и метеопрогнозы.

Управление картой: чтобы увеличить масштаб, щелкните зеленые кнопки с черным крестиком; чтобы уменьшить масштаб, щелкните зеленую кнопку с тире; для просмотра соседних карт щелкайте зеленые стрелки.


METAR-TAF: